Time;durP1;ratioP1;P1;durP2;ratioP2;P2;SDS_P1;SDS_P2;PMS_P1;PMS_P2;Temp;Humidity;BMP_temperature;BMP_pressure;BME280_temperature;BME280_humidity;BME280_pressure;Samples;Min_cycle;Max_cycle;Signal;HPM_P1;HPM_P2
2022/08/05 00:00:10;;;;;;;2.80;2.55;;;;;;;;;;5024455;28;20207;-35
2022/08/05 00:02:38;;;;;;;2.78;2.58;;;;;;;;;;5019045;28;20661;-33
2022/08/05 00:05:05;;;;;;;2.85;2.65;;;;;;;;;;5025021;28;20218;-34
2022/08/05 00:07:32;;;;;;;3.00;2.80;;;;;;;;;;5019354;28;20221;-35
2022/08/05 00:09:59;;;;;;;5.00;2.53;;;;;;;;;;5026540;28;20229;-36
2022/08/05 00:12:26;;;;;;;3.22;2.92;;;;;;;;;;5027673;28;20257;-34
2022/08/05 00:14:54;;;;;;;4.47;2.80;;;;;;;;;;5032858;28;20206;-38
2022/08/05 00:17:22;;;;;;;2.75;2.58;;;;;;;;;;5028838;28;20226;-33
2022/08/05 00:19:49;;;;;;;2.72;2.53;;;;;;;;;;5022601;28;20213;-37
2022/08/05 00:22:16;;;;;;;4.43;2.70;;;;;;;;;;5022447;28;20202;-36
2022/08/05 00:24:43;;;;;;;2.53;2.33;;;;;;;;;;5021879;28;20209;-35
2022/08/05 00:27:10;;;;;;;4.53;2.50;;;;;;;;;;5014508;28;20229;-37
2022/08/05 00:29:38;;;;;;;3.30;3.00;;;;;;;;;;5014869;28;20198;-35
2022/08/05 00:32:05;;;;;;;3.83;3.03;;;;;;;;;;5026968;28;20229;-34
2022/08/05 00:34:33;;;;;;;4.03;2.80;;;;;;;;;;5015932;28;20552;-32
2022/08/05 00:37:01;;;;;;;3.38;2.70;;;;;;;;;;5018664;28;20226;-35
2022/08/05 00:39:28;;;;;;;2.83;2.58;;;;;;;;;;5019513;28;20216;-34
2022/08/05 00:41:55;;;;;;;4.05;3.08;;;;;;;;;;5029888;28;20198;-33
2022/08/05 00:44:22;;;;;;;3.58;2.90;;;;;;;;;;5030514;28;20210;-34
2022/08/05 00:46:49;;;;;;;2.70;2.50;;;;;;;;;;5019581;28;20237;-32
2022/08/05 00:51:46;;;;;;;2.97;2.70;;;;;;;;;;4997482;28;20589;-37
2022/08/05 00:54:13;;;;;;;2.80;2.38;;;;;;;;;;5002021;28;20443;-36
2022/08/05 00:56:40;;;;;;;3.08;2.80;;;;;;;;;;4996380;28;20231;-39
2022/08/05 00:59:07;;;;;;;6.00;2.90;;;;;;;;;;5010394;28;20210;-33
2022/08/05 01:01:35;;;;;;;2.60;2.50;;;;;;;;;;5002762;28;20199;-36
2022/08/05 01:04:02;;;;;;;4.00;2.80;;;;;;;;;;5006295;28;20221;-40
2022/08/05 01:06:29;;;;;;;5.15;2.45;;;;;;;;;;4997277;28;20205;-36
2022/08/05 01:08:59;;;;;;;3.30;3.00;;;;;;;;;;5005420;28;20210;-40
2022/08/05 01:11:29;;;;;;;2.80;2.60;;;;;;;;;;5008547;28;20223;-36
2022/08/05 01:14:00;;;;;;;3.05;2.80;;;;;;;;;;5006732;28;20215;-33
2022/08/05 01:16:31;;;;;;;2.58;2.38;;;;;;;;;;5004896;28;20206;-39
2022/08/05 01:19:01;;;;;;;2.70;2.50;;;;;;;;;;5006779;28;20201;-37
2022/08/05 01:21:54;;;;;;;3.60;2.78;;;;;;;;;;5002261;28;20209;-41
2022/08/05 01:24:43;;;;;;;3.33;3.03;;;;;;;;;;5005669;28;20218;-38
2022/08/05 01:27:13;;;;;;;3.60;2.53;;;;;;;;;;4991909;28;20237;-38
2022/08/05 01:29:44;;;;;;;2.30;2.20;;;;;;;;;;4989831;28;20234;-39
2022/08/05 01:32:15;;;;;;;3.35;2.90;;;;;;;;;;5001153;28;20225;-38
2022/08/05 01:34:46;;;;;;;2.80;2.60;;;;;;;;;;5003028;28;20189;-37
2022/08/05 01:37:16;;;;;;;4.75;2.80;;;;;;;;;;5000272;28;20238;-39
2022/08/05 01:39:45;;;;;;;2.78;2.58;;;;;;;;;;4997244;28;20235;-41
2022/08/05 01:42:14;;;;;;;3.42;3.10;;;;;;;;;;5007661;28;20209;-36
2022/08/05 01:44:43;;;;;;;5.15;2.75;;;;;;;;;;5002815;28;20212;-36
2022/08/05 01:47:11;;;;;;;4.57;2.75;;;;;;;;;;5001248;28;20293;-37
2022/08/05 01:49:40;;;;;;;2.95;2.75;;;;;;;;;;4995390;28;20202;-42
2022/08/05 01:52:08;;;;;;;2.90;2.70;;;;;;;;;;4999352;28;20231;-38
2022/08/05 01:54:38;;;;;;;3.08;2.75;;;;;;;;;;5003969;28;20197;-39
2022/08/05 01:57:06;;;;;;;2.70;2.50;;;;;;;;;;5007008;28;20230;-37
2022/08/05 01:59:34;;;;;;;3.42;2.58;;;;;;;;;;5008320;28;20218;-42
2022/08/05 02:02:03;;;;;;;3.17;2.90;;;;;;;;;;5003301;28;20209;-36
2022/08/05 02:04:32;;;;;;;4.32;2.92;;;;;;;;;;5006114;28;20213;-37
2022/08/05 02:06:59;;;;;;;4.35;3.60;;;;;;;;;;4998005;28;20231;-35
2022/08/05 02:09:27;;;;;;;5.97;3.22;;;;;;;;;;4998915;28;20213;-40
2022/08/05 02:11:58;;;;;;;3.50;3.20;;;;;;;;;;5009617;28;20228;-37
2022/08/05 02:14:28;;;;;;;3.80;3.10;;;;;;;;;;5009440;28;20211;-36
2022/08/05 02:16:55;;;;;;;4.53;3.97;;;;;;;;;;4995912;28;20227;-36
2022/08/05 02:19:31;;;;;;;3.45;2.88;;;;;;;;;;4997055;28;20210;-38
2022/08/05 02:22:00;;;;;;;3.33;2.80;;;;;;;;;;4998391;28;20205;-37
2022/08/05 02:24:28;;;;;;;2.90;2.70;;;;;;;;;;5001297;28;20205;-39
2022/08/05 02:26:57;;;;;;;3.53;3.10;;;;;;;;;;5008959;28;20232;-35
2022/08/05 02:29:25;;;;;;;2.70;2.50;;;;;;;;;;5005595;28;20214;-40
2022/08/05 02:31:54;;;;;;;4.07;2.85;;;;;;;;;;4999807;28;20226;-38
2022/08/05 02:34:22;;;;;;;3.03;2.78;;;;;;;;;;5001839;28;20537;-40
2022/08/05 02:36:52;;;;;;;3.33;3.03;;;;;;;;;;5004929;28;20225;-35
2022/08/05 02:39:20;;;;;;;3.42;2.72;;;;;;;;;;4998085;28;20201;-37
2022/08/05 02:41:48;;;;;;;3.22;2.90;;;;;;;;;;4995367;28;20748;-36
2022/08/05 02:44:15;;;;;;;4.57;2.55;;;;;;;;;;5009797;28;20214;-40
2022/08/05 02:46:43;;;;;;;2.97;2.78;;;;;;;;;;4996094;28;20236;-38
2022/08/05 02:49:11;;;;;;;3.67;2.90;;;;;;;;;;5001751;28;20517;-36
2022/08/05 02:51:38;;;;;;;3.42;2.83;;;;;;;;;;4999293;28;20227;-36
2022/08/05 02:54:07;;;;;;;3.80;2.60;;;;;;;;;;5002951;28;20225;-33
2022/08/05 02:56:34;;;;;;;3.17;2.92;;;;;;;;;;5002070;28;20245;-35
2022/08/05 02:59:02;;;;;;;3.33;2.92;;;;;;;;;;5006671;28;20215;-42
2022/08/05 03:01:30;;;;;;;3.30;3.00;;;;;;;;;;5001274;28;20221;-36
2022/08/05 03:03:59;;;;;;;2.92;2.70;;;;;;;;;;4992581;28;20206;-39
2022/08/05 03:06:27;;;;;;;4.03;3.10;;;;;;;;;;4992004;28;20217;-36
2022/08/05 03:08:54;;;;;;;3.90;2.80;;;;;;;;;;4999118;28;20210;-39
2022/08/05 03:11:23;;;;;;;2.90;2.70;;;;;;;;;;5015001;28;20210;-42
2022/08/05 03:13:51;;;;;;;2.70;2.50;;;;;;;;;;5015520;28;20225;-40
2022/08/05 03:16:18;;;;;;;4.20;3.15;;;;;;;;;;5003429;28;20218;-42
2022/08/05 03:18:45;;;;;;;3.35;3.05;;;;;;;;;;5006280;28;20567;-38
2022/08/05 03:21:12;;;;;;;6.57;3.58;;;;;;;;;;5002551;28;20222;-39
2022/08/05 03:23:41;;;;;;;3.17;2.80;;;;;;;;;;4996678;28;20201;-39
2022/08/05 03:26:08;;;;;;;3.28;2.97;;;;;;;;;;5010559;28;20212;-36
2022/08/05 03:28:37;;;;;;;4.15;2.95;;;;;;;;;;5010649;28;20261;-40
2022/08/05 03:31:04;;;;;;;5.40;2.70;;;;;;;;;;5000903;28;20216;-40
2022/08/05 03:33:31;;;;;;;5.95;2.70;;;;;;;;;;5006600;28;20238;-35
2022/08/05 03:35:59;;;;;;;3.30;3.00;;;;;;;;;;5001292;28;20206;-34
2022/08/05 03:38:26;;;;;;;3.25;2.95;;;;;;;;;;5000577;28;20228;-36
2022/08/05 03:40:54;;;;;;;3.38;3.08;;;;;;;;;;5003761;28;20216;-32
2022/08/05 03:43:23;;;;;;;4.95;3.05;;;;;;;;;;5007755;28;20201;-40
2022/08/05 03:45:52;;;;;;;5.88;3.30;;;;;;;;;;5003357;28;20297;-39
2022/08/05 03:48:20;;;;;;;3.65;3.15;;;;;;;;;;5002062;28;20227;-38
2022/08/05 03:50:51;;;;;;;3.67;3.38;;;;;;;;;;5005533;28;20213;-35
2022/08/05 03:53:22;;;;;;;4.93;3.28;;;;;;;;;;4998513;28;20221;-34
2022/08/05 03:55:52;;;;;;;3.28;2.92;;;;;;;;;;5011157;28;20495;-41
2022/08/05 03:58:23;;;;;;;3.22;2.97;;;;;;;;;;5011826;28;20317;-40
2022/08/05 04:00:53;;;;;;;2.53;2.42;;;;;;;;;;5005322;28;20224;-38
2022/08/05 04:03:21;;;;;;;3.10;2.72;;;;;;;;;;5007337;28;20202;-34
2022/08/05 04:05:49;;;;;;;5.10;4.57;;;;;;;;;;4997177;28;20206;-37
2022/08/05 04:08:17;;;;;;;4.88;2.92;;;;;;;;;;4999603;28;20221;-41
2022/08/05 04:10:45;;;;;;;3.28;3.05;;;;;;;;;;4998860;28;20206;-37
2022/08/05 04:13:12;;;;;;;3.08;2.85;;;;;;;;;;5011563;28;20286;-36
2022/08/05 04:15:40;;;;;;;3.35;2.78;;;;;;;;;;5002952;28;20209;-37
2022/08/05 04:18:08;;;;;;;3.40;2.80;;;;;;;;;;5003253;28;20233;-36
2022/08/05 04:20:35;;;;;;;2.88;2.63;;;;;;;;;;5007191;28;20369;-37
2022/08/05 04:23:02;;;;;;;3.38;2.80;;;;;;;;;;4994064;28;20210;-33
2022/08/05 04:25:29;;;;;;;2.97;2.58;;;;;;;;;;4994135;28;20206;-38
2022/08/05 04:27:56;;;;;;;3.35;2.97;;;;;;;;;;4998078;28;20225;-37
2022/08/05 04:30:24;;;;;;;3.55;3.10;;;;;;;;;;5003743;28;20775;-37
2022/08/05 04:32:53;;;;;;;4.25;2.97;;;;;;;;;;4996003;28;20229;-38
2022/08/05 04:35:21;;;;;;;5.18;2.85;;;;;;;;;;5002075;28;20225;-35
2022/08/05 04:37:48;;;;;;;3.53;3.05;;;;;;;;;;5004684;28;20222;-40
2022/08/05 04:40:16;;;;;;;3.33;3.10;;;;;;;;;;4999564;28;20213;-38
2022/08/05 04:42:43;;;;;;;3.33;2.90;;;;;;;;;;5013416;28;20201;-41
2022/08/05 04:45:10;;;;;;;3.20;3.00;;;;;;;;;;5010422;28;20213;-39
2022/08/05 04:47:37;;;;;;;4.35;3.08;;;;;;;;;;5007903;28;20240;-40
2022/08/05 04:50:05;;;;;;;3.55;2.55;;;;;;;;;;5002696;28;20225;-37
2022/08/05 04:52:33;;;;;;;4.43;3.15;;;;;;;;;;5002156;28;20240;-42
2022/08/05 04:55:23;;;;;;;3.60;2.65;;;;;;;;;;5008393;28;20205;-39
2022/08/05 04:57:50;;;;;;;3.08;2.70;;;;;;;;;;5013673;28;20248;-38
2022/08/05 05:00:17;;;;;;;3.08;2.63;;;;;;;;;;4992458;28;20210;-40
2022/08/05 05:02:45;;;;;;;3.13;2.70;;;;;;;;;;5001424;28;20196;-35
2022/08/05 05:05:12;;;;;;;3.20;2.90;;;;;;;;;;5012826;28;20214;-37
2022/08/05 05:07:40;;;;;;;4.72;3.10;;;;;;;;;;5003574;28;20222;-38
2022/08/05 05:10:08;;;;;;;4.20;3.45;;;;;;;;;;4996497;28;20217;-41
2022/08/05 05:12:35;;;;;;;3.88;3.10;;;;;;;;;;5013178;28;20236;-39
2022/08/05 05:15:02;;;;;;;5.25;2.67;;;;;;;;;;5007431;28;20217;-36
2022/08/05 05:17:29;;;;;;;2.72;2.38;;;;;;;;;;4997749;28;20222;-42
2022/08/05 05:19:56;;;;;;;3.58;2.78;;;;;;;;;;5000878;28;20201;-38
2022/08/05 05:22:23;;;;;;;3.00;2.50;;;;;;;;;;4993633;28;20204;-34
2022/08/05 05:24:52;;;;;;;3.50;2.97;;;;;;;;;;5000962;28;20205;-34
2022/08/05 05:27:19;;;;;;;2.75;2.50;;;;;;;;;;5013410;28;20228;-37
2022/08/05 05:29:46;;;;;;;4.07;3.03;;;;;;;;;;5009136;28;20210;-40
2022/08/05 05:32:14;;;;;;;3.00;2.70;;;;;;;;;;4995158;28;20220;-38
2022/08/05 05:34:41;;;;;;;4.80;2.75;;;;;;;;;;5007462;28;20207;-34
2022/08/05 05:37:08;;;;;;;4.70;3.38;;;;;;;;;;5003500;28;20233;-39
2022/08/05 05:39:35;;;;;;;4.00;3.13;;;;;;;;;;4996842;28;20220;-37
2022/08/05 05:42:04;;;;;;;3.92;3.00;;;;;;;;;;4993522;28;20211;-38
2022/08/05 05:44:32;;;;;;;4.40;2.97;;;;;;;;;;4999029;28;20206;-39
2022/08/05 05:46:59;;;;;;;7.22;3.30;;;;;;;;;;4999490;28;20229;-37
2022/08/05 05:49:26;;;;;;;4.72;2.97;;;;;;;;;;5004962;28;20268;-32
2022/08/05 05:51:53;;;;;;;6.57;3.30;;;;;;;;;;4999356;28;20205;-40
2022/08/05 05:54:21;;;;;;;6.00;3.72;;;;;;;;;;5008020;28;20326;-40
2022/08/05 05:56:48;;;;;;;8.90;3.17;;;;;;;;;;5012709;28;20233;-34
2022/08/05 05:59:16;;;;;;;7.20;3.45;;;;;;;;;;5007836;28;20202;-37
2022/08/05 06:01:44;;;;;;;7.63;3.45;;;;;;;;;;5007003;28;20212;-37
2022/08/05 06:04:12;;;;;;;4.35;2.72;;;;;;;;;;5000455;28;20208;-37
2022/08/05 06:06:41;;;;;;;4.90;3.30;;;;;;;;;;5004738;28;20236;-37
2022/08/05 06:09:08;;;;;;;5.15;3.25;;;;;;;;;;5009687;28;20260;-36
2022/08/05 06:11:35;;;;;;;9.43;2.90;;;;;;;;;;5005380;28;20205;-35
2022/08/05 06:14:03;;;;;;;5.65;3.05;;;;;;;;;;5008752;28;20225;-36
2022/08/05 06:16:31;;;;;;;5.60;3.05;;;;;;;;;;4998949;28;20274;-40
2022/08/05 06:18:58;;;;;;;3.55;3.08;;;;;;;;;;5008887;28;20207;-35
2022/08/05 06:21:25;;;;;;;5.50;3.28;;;;;;;;;;5005192;28;20209;-35
2022/08/05 06:23:52;;;;;;;4.72;2.97;;;;;;;;;;5007565;28;20220;-41
2022/08/05 06:26:19;;;;;;;5.38;3.35;;;;;;;;;;5000600;28;20210;-39
2022/08/05 06:28:47;;;;;;;5.20;3.00;;;;;;;;;;4991453;28;20210;-34
2022/08/05 06:31:14;;;;;;;10.10;3.47;;;;;;;;;;5001099;28;20219;-38
2022/08/05 06:33:42;;;;;;;6.20;3.00;;;;;;;;;;4996927;28;20592;-38
2022/08/05 06:36:09;;;;;;;7.63;3.42;;;;;;;;;;5005055;28;20214;-39
2022/08/05 06:38:36;;;;;;;5.03;3.13;;;;;;;;;;4997812;28;20211;-39
2022/08/05 06:41:04;;;;;;;12.07;3.55;;;;;;;;;;5010390;28;20201;-32
2022/08/05 06:43:31;;;;;;;5.97;3.00;;;;;;;;;;5013311;28;20205;-37
2022/08/05 06:45:58;;;;;;;2.95;2.42;;;;;;;;;;5005504;28;20207;-37
2022/08/05 06:48:25;;;;;;;5.28;2.90;;;;;;;;;;5006439;28;20226;-38
2022/08/05 06:53:25;;;;;;;3.50;2.65;;;;;;;;;;5064810;28;20706;-43
2022/08/05 06:55:52;;;;;;;4.20;2.72;;;;;;;;;;5070330;28;20224;-45
2022/08/05 06:58:19;;;;;;;5.57;2.70;;;;;;;;;;5070150;28;20231;-45
2022/08/05 07:00:46;;;;;;;2.80;2.40;;;;;;;;;;5066582;28;20216;-41
2022/08/05 07:03:13;;;;;;;4.82;2.55;;;;;;;;;;5072177;28;20209;-44
2022/08/05 07:05:40;;;;;;;3.75;2.50;;;;;;;;;;5069536;28;20202;-45
2022/08/05 07:08:07;;;;;;;6.97;2.50;;;;;;;;;;5064150;28;20225;-44
2022/08/05 07:10:36;;;;;;;3.28;2.40;;;;;;;;;;5062828;28;20240;-42
2022/08/05 07:18:32;;;;;;;6.88;2.50;;;;;;;;;;5020421;28;20221;-43
2022/08/05 07:20:59;;;;;;;2.25;2.08;;;;;;;;;;5064141;28;20209;-45
2022/08/05 07:23:26;;;;;;;2.72;2.53;;;;;;;;;;5056637;28;20216;-42
2022/08/05 07:25:54;;;;;;;2.53;2.17;;;;;;;;;;5068514;28;20208;-45
2022/08/05 07:28:21;;;;;;;4.50;2.22;;;;;;;;;;5052274;28;20233;-44
2022/08/05 07:30:49;;;;;;;4.50;2.70;;;;;;;;;;5052378;28;20209;-43
2022/08/05 07:33:16;;;;;;;2.50;2.30;;;;;;;;;;5070647;28;20521;-44
2022/08/05 07:35:43;;;;;;;2.53;2.13;;;;;;;;;;5058173;28;20209;-44
2022/08/05 07:38:10;;;;;;;5.78;2.17;;;;;;;;;;5064936;28;20232;-45
2022/08/05 07:40:37;;;;;;;3.42;2.28;;;;;;;;;;5063839;28;20201;-45
2022/08/05 07:43:05;;;;;;;2.85;2.03;;;;;;;;;;5071798;28;20204;-44
2022/08/05 07:45:33;;;;;;;3.75;2.22;;;;;;;;;;5060780;28;20209;-43
2022/08/05 07:48:00;;;;;;;3.83;2.33;;;;;;;;;;5061861;28;20268;-45
2022/08/05 07:50:28;;;;;;;4.95;2.13;;;;;;;;;;5054994;28;20201;-45
2022/08/05 07:52:55;;;;;;;3.25;2.30;;;;;;;;;;5060026;28;20209;-45
2022/08/05 07:55:22;;;;;;;4.15;2.10;;;;;;;;;;5065774;28;20229;-42
2022/08/05 07:57:50;;;;;;;2.95;1.90;;;;;;;;;;5068745;28;20592;-45
2022/08/05 08:00:18;;;;;;;2.53;1.98;;;;;;;;;;5067646;28;20634;-43
2022/08/05 08:02:46;;;;;;;1.92;1.75;;;;;;;;;;5071103;28;20201;-45
2022/08/05 08:05:13;;;;;;;2.78;1.73;;;;;;;;;;5060313;28;20209;-41
2022/08/05 08:07:40;;;;;;;2.42;2.20;;;;;;;;;;5060935;28;20328;-44
2022/08/05 08:10:07;;;;;;;2.55;1.83;;;;;;;;;;5060776;28;20737;-44
2022/08/05 08:12:34;;;;;;;5.97;1.83;;;;;;;;;;5051792;28;20220;-45
2022/08/05 08:15:02;;;;;;;2.53;2.22;;;;;;;;;;5059422;28;20221;-44
2022/08/05 08:17:30;;;;;;;4.38;2.28;;;;;;;;;;5068690;28;20221;-45
2022/08/05 08:19:57;;;;;;;3.70;2.08;;;;;;;;;;5067320;28;20701;-42
2022/08/05 08:22:26;;;;;;;3.85;2.08;;;;;;;;;;5060589;28;20224;-43
2022/08/05 08:24:54;;;;;;;1.80;1.70;;;;;;;;;;5058947;28;20660;-44
2022/08/05 08:27:21;;;;;;;3.10;1.77;;;;;;;;;;5070800;28;20224;-43
2022/08/05 08:29:48;;;;;;;4.22;1.73;;;;;;;;;;5063808;28;20251;-43
2022/08/05 08:32:15;;;;;;;2.15;1.95;;;;;;;;;;5066828;28;20206;-43
2022/08/05 08:34:44;;;;;;;3.83;1.80;;;;;;;;;;5050845;28;20221;-42
2022/08/05 08:37:11;;;;;;;2.47;1.65;;;;;;;;;;5056789;28;20237;-42
2022/08/05 08:39:38;;;;;;;1.92;1.73;;;;;;;;;;5059924;28;20216;-42
2022/08/05 08:42:06;;;;;;;1.80;1.70;;;;;;;;;;5069272;28;20208;-42
2022/08/05 08:44:34;;;;;;;2.22;2.05;;;;;;;;;;5071289;28;20204;-43
2022/08/05 08:47:03;;;;;;;3.08;1.98;;;;;;;;;;5061371;28;20221;-44
2022/08/05 08:49:31;;;;;;;3.05;1.98;;;;;;;;;;5066565;28;20225;-43
2022/08/05 08:52:02;;;;;;;3.10;1.80;;;;;;;;;;5052697;28;20201;-43
2022/08/05 08:54:29;;;;;;;3.05;1.65;;;;;;;;;;5060979;28;20243;-43
2022/08/05 08:56:56;;;;;;;2.00;1.75;;;;;;;;;;5064390;28;20216;-44
2022/08/05 08:59:24;;;;;;;2.08;1.98;;;;;;;;;;5059675;28;20197;-44
2022/08/05 09:01:52;;;;;;;2.88;1.88;;;;;;;;;;5062632;28;20239;-42
2022/08/05 09:04:19;;;;;;;2.22;1.80;;;;;;;;;;5062978;28;20190;-43
2022/08/05 09:06:46;;;;;;;3.97;2.05;;;;;;;;;;5060926;28;20228;-43
2022/08/05 09:09:15;;;;;;;1.80;1.70;;;;;;;;;;5058248;28;20198;-44
2022/08/05 09:11:42;;;;;;;2.17;1.98;;;;;;;;;;5066443;28;20201;-42
2022/08/05 09:14:11;;;;;;;3.45;1.95;;;;;;;;;;5059418;28;20698;-44
2022/08/05 09:16:39;;;;;;;4.65;2.20;;;;;;;;;;5052602;28;20218;-43
2022/08/05 09:19:08;;;;;;;2.38;1.85;;;;;;;;;;5062783;28;20209;-44
2022/08/05 09:21:35;;;;;;;2.75;1.98;;;;;;;;;;5062656;28;20208;-43
2022/08/05 09:24:04;;;;;;;2.63;2.25;;;;;;;;;;5062390;28;20200;-43
2022/08/05 09:26:32;;;;;;;1.80;1.70;;;;;;;;;;5061573;28;21152;-42
2022/08/05 09:29:03;;;;;;;2.03;1.70;;;;;;;;;;5066237;28;20194;-43
2022/08/05 09:31:30;;;;;;;3.45;2.13;;;;;;;;;;5064125;28;20255;-42
2022/08/05 09:33:58;;;;;;;2.65;1.80;;;;;;;;;;5053223;28;20236;-42
2022/08/05 09:36:38;;;;;;;1.70;1.60;;;;;;;;;;5063687;28;20201;-44
2022/08/05 09:39:06;;;;;;;2.70;2.08;;;;;;;;;;5066640;28;20231;-43
2022/08/05 09:41:35;;;;;;;2.30;1.85;;;;;;;;;;5066722;28;20212;-42
2022/08/05 09:44:03;;;;;;;2.90;2.13;;;;;;;;;;5070154;28;20211;-44
2022/08/05 09:46:30;;;;;;;1.90;1.80;;;;;;;;;;5059626;28;20206;-44
2022/08/05 09:48:59;;;;;;;1.85;1.70;;;;;;;;;;5069665;28;20197;-44
2022/08/05 09:51:33;;;;;;;2.67;1.92;;;;;;;;;;5064267;28;20216;-43
2022/08/05 09:54:03;;;;;;;2.00;1.90;;;;;;;;;;5062167;28;20566;-43
2022/08/05 09:56:32;;;;;;;2.67;1.80;;;;;;;;;;5056991;28;20212;-44
2022/08/05 09:59:01;;;;;;;2.22;2.03;;;;;;;;;;5059568;28;20197;-41
2022/08/05 10:01:29;;;;;;;2.55;1.83;;;;;;;;;;5068832;28;20216;-43
2022/08/05 10:03:58;;;;;;;2.80;1.92;;;;;;;;;;5069728;28;20197;-43
2022/08/05 10:06:26;;;;;;;1.85;1.75;;;;;;;;;;5065605;28;20209;-43
2022/08/05 10:08:53;;;;;;;2.20;2.00;;;;;;;;;;5059708;28;20201;-43
2022/08/05 10:11:20;;;;;;;2.88;1.70;;;;;;;;;;5062198;28;20205;-44
2022/08/05 10:13:48;;;;;;;3.47;2.20;;;;;;;;;;5065419;28;20205;-44
2022/08/05 10:16:33;;;;;;;3.33;1.70;;;;;;;;;;5057951;28;20202;-43
2022/08/05 10:19:01;;;;;;;4.03;1.83;;;;;;;;;;5058642;28;20205;-41
2022/08/05 10:21:28;;;;;;;2.40;1.70;;;;;;;;;;5063876;28;20205;-44
2022/08/05 10:23:56;;;;;;;1.70;1.60;;;;;;;;;;5069052;28;20208;-44
2022/08/05 10:26:23;;;;;;;1.73;1.60;;;;;;;;;;5057271;28;20201;-43
2022/08/05 10:28:50;;;;;;;1.80;1.70;;;;;;;;;;5062980;28;20207;-44
2022/08/05 10:31:18;;;;;;;4.30;1.90;;;;;;;;;;5056451;28;20197;-43
2022/08/05 10:33:47;;;;;;;2.10;1.90;;;;;;;;;;5056794;28;20209;-44
2022/08/05 10:36:15;;;;;;;4.65;2.10;;;;;;;;;;5050868;28;20222;-43
2022/08/05 10:38:45;;;;;;;2.38;2.00;;;;;;;;;;5063697;28;20258;-41
2022/08/05 10:41:16;;;;;;;2.83;1.80;;;;;;;;;;5059499;28;20240;-44
2022/08/05 10:43:48;;;;;;;3.50;1.80;;;;;;;;;;5051871;28;20193;-43
2022/08/05 10:46:16;;;;;;;2.25;1.85;;;;;;;;;;5054622;28;20201;-43
2022/08/05 10:48:44;;;;;;;2.55;1.60;;;;;;;;;;5058277;28;20435;-40
2022/08/05 10:51:13;;;;;;;2.30;2.10;;;;;;;;;;5061652;28;20215;-42
2022/08/05 10:53:44;;;;;;;2.00;1.80;;;;;;;;;;5059306;28;20273;-43
2022/08/05 10:56:14;;;;;;;1.88;1.77;;;;;;;;;;5065665;28;20228;-43
2022/08/05 10:58:51;;;;;;;3.33;1.65;;;;;;;;;;5069654;28;20205;-43
2022/08/05 11:01:18;;;;;;;2.00;1.80;;;;;;;;;;5058837;28;20197;-44
2022/08/05 11:04:08;;;;;;;1.92;1.83;;;;;;;;;;5063187;28;20205;-41
2022/08/05 11:06:56;;;;;;;3.05;1.55;;;;;;;;;;5052814;28;20308;-42
2022/08/05 11:09:26;;;;;;;2.50;1.70;;;;;;;;;;5056637;28;20543;-43
2022/08/05 11:11:53;;;;;;;2.28;1.75;;;;;;;;;;5055198;28;20201;-42
2022/08/05 11:14:24;;;;;;;2.83;2.00;;;;;;;;;;5068876;28;20217;-43
2022/08/05 11:17:11;;;;;;;1.98;1.88;;;;;;;;;;5057121;28;20221;-42
2022/08/05 11:19:45;;;;;;;1.70;1.60;;;;;;;;;;5063456;28;20198;-44
2022/08/05 11:22:31;;;;;;;1.70;1.60;;;;;;;;;;5061841;28;20204;-43
2022/08/05 11:25:17;;;;;;;2.00;1.90;;;;;;;;;;5065003;28;20197;-43
2022/08/05 11:27:45;;;;;;;2.08;1.85;;;;;;;;;;5051250;28;20225;-43
2022/08/05 11:30:12;;;;;;;1.50;1.33;;;;;;;;;;5050718;28;20209;-42
2022/08/05 11:32:40;;;;;;;1.60;1.50;;;;;;;;;;5067150;28;20288;-41
2022/08/05 11:35:07;;;;;;;1.85;1.75;;;;;;;;;;5073541;28;20220;-39
2022/08/05 11:37:52;;;;;;;1.60;1.50;;;;;;;;;;5065436;28;20222;-40
2022/08/05 11:40:20;;;;;;;1.90;1.70;;;;;;;;;;5051546;28;20198;-41
2022/08/05 11:42:56;;;;;;;1.85;1.73;;;;;;;;;;5054770;28;20213;-41
2022/08/05 11:45:24;;;;;;;1.67;1.58;;;;;;;;;;5066918;28;20197;-39
2022/08/05 11:47:51;;;;;;;2.40;1.90;;;;;;;;;;5065388;28;20221;-41
2022/08/05 11:50:18;;;;;;;1.80;1.70;;;;;;;;;;5064256;28;20197;-42
2022/08/05 11:52:46;;;;;;;2.50;2.13;;;;;;;;;;5064443;28;20829;-37
2022/08/05 11:55:14;;;;;;;3.92;2.28;;;;;;;;;;5062295;28;20225;-42
2022/08/05 11:57:46;;;;;;;2.08;1.88;;;;;;;;;;5054864;28;20268;-41
2022/08/05 12:00:27;;;;;;;1.77;1.60;;;;;;;;;;5066869;28;20205;-42
2022/08/05 12:02:55;;;;;;;1.50;1.40;;;;;;;;;;5065357;28;20248;-42
2022/08/05 12:05:26;;;;;;;2.03;1.52;;;;;;;;;;5072136;28;20193;-43
2022/08/05 12:07:57;;;;;;;3.15;1.50;;;;;;;;;;5056751;28;20243;-44
2022/08/05 12:10:26;;;;;;;4.90;2.13;;;;;;;;;;5054238;28;20197;-41
2022/08/05 12:12:53;;;;;;;1.80;1.70;;;;;;;;;;5053716;28;20202;-44
2022/08/05 12:15:21;;;;;;;2.53;1.85;;;;;;;;;;5059899;28;20220;-41
2022/08/05 12:17:49;;;;;;;1.92;1.55;;;;;;;;;;5071765;28;20225;-38
2022/08/05 12:20:18;;;;;;;1.95;1.77;;;;;;;;;;5060967;28;20216;-42
2022/08/05 12:22:45;;;;;;;1.67;1.58;;;;;;;;;;5056485;28;20213;-40
2022/08/05 12:25:12;;;;;;;1.70;1.60;;;;;;;;;;5064047;28;20209;-41
2022/08/05 12:27:41;;;;;;;1.85;1.67;;;;;;;;;;5073975;28;20266;-43
2022/08/05 12:30:09;;;;;;;1.80;1.70;;;;;;;;;;5059544;28;20213;-43
2022/08/05 12:32:44;;;;;;;2.22;1.50;;;;;;;;;;5061811;28;20201;-41
2022/08/05 12:35:14;;;;;;;1.90;1.63;;;;;;;;;;5063087;28;20213;-45
2022/08/05 12:37:41;;;;;;;2.05;1.60;;;;;;;;;;5070517;28;20235;-39
2022/08/05 12:40:10;;;;;;;1.70;1.60;;;;;;;;;;5064957;28;20727;-46
2022/08/05 12:42:37;;;;;;;1.83;1.63;;;;;;;;;;5073313;28;20205;-43
2022/08/05 12:45:06;;;;;;;1.67;1.58;;;;;;;;;;5069723;28;20200;-38
2022/08/05 12:47:33;;;;;;;1.80;1.70;;;;;;;;;;5067701;28;20217;-42
2022/08/05 12:50:01;;;;;;;2.35;1.70;;;;;;;;;;5062727;28;20198;-45
2022/08/05 12:54:58;;;;;;;1.52;1.42;;;;;;;;;;5021580;28;20570;-44
2022/08/05 12:57:26;;;;;;;2.30;1.58;;;;;;;;;;5025340;28;20310;-45
2022/08/05 12:59:54;;;;;;;1.80;1.70;;;;;;;;;;5016090;28;20218;-40
2022/08/05 13:02:22;;;;;;;2.03;1.40;;;;;;;;;;5021179;28;20198;-44
2022/08/05 13:04:50;;;;;;;1.83;1.73;;;;;;;;;;5028912;28;20207;-42
2022/08/05 13:07:19;;;;;;;2.05;1.75;;;;;;;;;;5019947;28;20277;-41
2022/08/05 13:09:51;;;;;;;2.08;1.55;;;;;;;;;;5018448;28;20716;-43
2022/08/05 13:12:20;;;;;;;1.75;1.52;;;;;;;;;;5027647;28;20606;-43
2022/08/05 13:14:49;;;;;;;1.50;1.40;;;;;;;;;;5024619;28;20241;-42
2022/08/05 13:17:20;;;;;;;1.33;1.30;;;;;;;;;;5020852;28;20233;-44
2022/08/05 13:20:03;;;;;;;2.13;1.70;;;;;;;;;;5023705;28;20206;-45
2022/08/05 13:22:30;;;;;;;2.60;1.52;;;;;;;;;;5019024;28;20206;-44
2022/08/05 13:24:58;;;;;;;1.70;1.60;;;;;;;;;;5028355;28;20248;-46
2022/08/05 13:27:28;;;;;;;1.45;1.35;;;;;;;;;;5030624;28;20583;-44
2022/08/05 13:29:55;;;;;;;1.55;1.45;;;;;;;;;;5019910;28;20298;-45
2022/08/05 13:32:23;;;;;;;2.10;1.77;;;;;;;;;;5024954;28;20213;-42
2022/08/05 13:34:50;;;;;;;2.17;1.60;;;;;;;;;;5025199;28;20208;-43
2022/08/05 13:37:19;;;;;;;1.88;1.65;;;;;;;;;;5026401;28;20316;-43
2022/08/05 13:39:47;;;;;;;1.38;1.27;;;;;;;;;;5031675;28;20328;-43
2022/08/05 13:42:14;;;;;;;1.80;1.70;;;;;;;;;;5031165;28;20198;-46
2022/08/05 13:44:43;;;;;;;1.52;1.42;;;;;;;;;;5025265;28;20210;-40
2022/08/05 13:47:10;;;;;;;2.45;1.63;;;;;;;;;;5018827;28;20234;-44
2022/08/05 13:49:37;;;;;;;1.52;1.42;;;;;;;;;;5024704;28;20712;-40
2022/08/05 13:52:11;;;;;;;1.98;1.75;;;;;;;;;;5019755;28;20207;-45
2022/08/05 13:54:38;;;;;;;1.75;1.65;;;;;;;;;;5024910;28;20214;-45
2022/08/05 13:57:06;;;;;;;1.63;1.52;;;;;;;;;;5032087;28;20496;-44
2022/08/05 13:59:33;;;;;;;2.03;1.80;;;;;;;;;;5022462;28;20528;-45
2022/08/05 14:02:02;;;;;;;2.03;1.63;;;;;;;;;;5029246;28;20386;-45
2022/08/05 14:07:15;;;;;;;2.00;1.90;;;;;;;;;;5019323;28;20229;-40
2022/08/05 14:09:42;;;;;;;2.17;1.90;;;;;;;;;;5022334;28;20561;-43
2022/08/05 14:12:09;;;;;;;2.25;2.05;;;;;;;;;;5010541;28;20692;-43
2022/08/05 14:14:36;;;;;;;2.25;1.88;;;;;;;;;;5013438;28;20226;-43
2022/08/05 14:17:05;;;;;;;2.55;1.98;;;;;;;;;;5027394;28;20234;-43
2022/08/05 14:19:33;;;;;;;1.80;1.70;;;;;;;;;;5016512;28;20199;-44
2022/08/05 14:22:00;;;;;;;2.42;1.90;;;;;;;;;;5011825;28;20298;-43
2022/08/05 14:24:27;;;;;;;5.15;2.25;;;;;;;;;;5017742;28;20208;-44
2022/08/05 14:26:54;;;;;;;2.00;1.90;;;;;;;;;;5018035;28;20210;-39
2022/08/05 14:29:22;;;;;;;1.95;1.65;;;;;;;;;;5024761;28;20213;-41
2022/08/05 14:31:49;;;;;;;2.10;1.90;;;;;;;;;;5018511;28;20535;-45
2022/08/05 14:34:17;;;;;;;2.10;1.90;;;;;;;;;;5017570;28;20206;-42
2022/08/05 14:36:44;;;;;;;2.15;2.05;;;;;;;;;;5021159;28;20226;-43
2022/08/05 14:39:11;;;;;;;1.75;1.65;;;;;;;;;;5016369;28;20211;-43
2022/08/05 14:41:39;;;;;;;5.50;4.70;;;;;;;;;;5025870;28;20202;-45
2022/08/05 14:44:06;;;;;;;3.90;3.20;;;;;;;;;;5017006;28;20644;-45
2022/08/05 14:46:34;;;;;;;2.65;2.17;;;;;;;;;;5031367;28;20230;-45
2022/08/05 14:49:01;;;;;;;3.25;3.05;;;;;;;;;;5028319;28;20206;-43
2022/08/05 14:51:30;;;;;;;4.18;2.00;;;;;;;;;;5019225;28;20214;-42
2022/08/05 14:53:57;;;;;;;2.58;2.38;;;;;;;;;;5020738;28;20679;-39
2022/08/05 14:56:24;;;;;;;2.58;2.15;;;;;;;;;;5014221;28;20342;-44
2022/08/05 14:58:51;;;;;;;2.72;2.10;;;;;;;;;;5018520;28;20203;-43
2022/08/05 15:01:19;;;;;;;2.30;2.10;;;;;;;;;;5022677;28;20210;-41
2022/08/05 15:03:46;;;;;;;2.22;1.95;;;;;;;;;;5022025;28;20211;-42
2022/08/05 15:06:15;;;;;;;2.42;2.20;;;;;;;;;;5019764;28;20203;-42